createdAt,value
2023-03-14T00:01:14.925Z,63.86
2023-03-14T00:03:41.405Z,64.54
2023-03-14T00:06:09.005Z,64.15
2023-03-14T00:08:35.515Z,63.99
2023-03-14T00:11:10.443Z,63.95
2023-03-14T00:13:37.949Z,63.99
2023-03-14T00:16:06.292Z,64.21
2023-03-14T00:18:33.702Z,64.37
2023-03-14T00:21:01.766Z,64.65
2023-03-14T00:23:29.686Z,64.84
2023-03-14T00:26:04.651Z,63.85
2023-03-14T00:28:31.448Z,64.35
2023-03-14T00:30:57.956Z,64.28
2023-03-14T00:33:25.086Z,65.04
2023-03-14T00:36:00.082Z,64.52
2023-03-14T00:38:27.097Z,64.58
2023-03-14T00:40:53.954Z,64.58
2023-03-14T00:43:24.741Z,64.06
2023-03-14T00:45:52.856Z,65.11
2023-03-14T00:48:20.908Z,64.14
2023-03-14T00:50:48.166Z,64.39
2023-03-14T00:53:14.778Z,63.41
2023-03-14T00:55:43.498Z,63.65
2023-03-14T00:58:10.974Z,64.52
2023-03-14T01:00:37.561Z,64.23
2023-03-14T01:03:04.269Z,63.78
2023-03-14T01:05:30.964Z,62.99
2023-03-14T01:07:57.859Z,63.13
2023-03-14T01:10:24.543Z,63.88
2023-03-14T01:12:51.126Z,64.14
2023-03-14T01:15:17.690Z,67.80
2023-03-14T01:17:44.140Z,65.88
2023-03-14T01:20:13.391Z,64.77
2023-03-14T01:22:40.917Z,63.90
2023-03-14T01:25:09.666Z,64.19
2023-03-14T01:27:36.160Z,62.69
2023-03-14T01:30:03.206Z,63.25
2023-03-14T01:32:29.674Z,62.75
2023-03-14T01:34:56.167Z,65.02
2023-03-14T01:37:22.756Z,63.60
2023-03-14T01:39:49.183Z,63.83
2023-03-14T01:42:16.654Z,63.01
2023-03-14T01:45:27.874Z,62.84
2023-03-14T01:47:54.281Z,62.30
2023-03-14T01:50:20.825Z,62.04
2023-03-14T01:52:51.010Z,62.86
2023-03-14T01:55:22.808Z,63.16
2023-03-14T01:57:54.028Z,62.56
2023-03-14T02:00:24.098Z,62.03
2023-03-14T02:03:06.263Z,62.83
2023-03-14T02:05:35.698Z,61.66
2023-03-14T02:08:04.680Z,61.66
2023-03-14T02:10:39.500Z,61.62
2023-03-14T02:13:07.272Z,62.26
2023-03-14T02:15:34.251Z,61.05
2023-03-14T02:18:02.336Z,62.43
2023-03-14T02:20:37.967Z,61.38
2023-03-14T02:23:05.569Z,59.92
2023-03-14T02:25:49.339Z,62.00
2023-03-14T02:28:15.847Z,61.63
2023-03-14T02:30:42.690Z,60.20
2023-03-14T02:33:10.965Z,59.03
2023-03-14T02:35:48.366Z,60.33
2023-03-14T02:38:26.215Z,62.00
2023-03-14T02:40:52.662Z,60.98
2023-03-14T02:43:19.547Z,61.83
2023-03-14T02:45:49.496Z,58.99
2023-03-14T02:48:22.846Z,61.33
2023-03-14T02:50:51.551Z,61.61
2023-03-14T02:53:24.616Z,61.26
2023-03-14T02:55:51.671Z,61.88
2023-03-14T02:58:19.204Z,60.08
2023-03-14T03:00:46.506Z,61.83
2023-03-14T03:03:13.433Z,61.09
2023-03-14T03:05:39.975Z,60.22
2023-03-14T03:08:06.499Z,61.10
2023-03-14T03:10:33.402Z,60.92
2023-03-14T03:12:59.835Z,61.59
2023-03-14T03:15:27.948Z,60.18
2023-03-14T03:17:54.380Z,59.92
2023-03-14T03:20:20.842Z,59.75
2023-03-14T03:22:47.362Z,61.10
2023-03-14T03:25:13.878Z,61.83
2023-03-14T03:27:40.326Z,62.04
2023-03-14T03:30:07.961Z,60.63
2023-03-14T03:32:34.388Z,62.52
2023-03-14T03:35:00.914Z,61.78
2023-03-14T03:37:27.355Z,62.96
2023-03-14T03:39:53.820Z,62.90
2023-03-14T03:42:20.457Z,61.54
2023-03-14T03:44:46.973Z,60.67
2023-03-14T03:47:13.406Z,61.63
2023-03-14T03:49:39.857Z,62.67
2023-03-14T03:52:06.328Z,61.72
2023-03-14T03:54:32.753Z,60.89
2023-03-14T03:56:59.189Z,62.13
2023-03-14T03:59:25.631Z,63.14
2023-03-14T04:01:52.265Z,61.90
2023-03-14T04:04:19.016Z,61.13
2023-03-14T04:06:45.938Z,63.71
2023-03-14T04:09:13.165Z,61.49
2023-03-14T04:11:39.665Z,62.14
2023-03-14T04:14:06.526Z,60.53
2023-03-14T04:16:33.000Z,62.45
2023-03-14T04:18:59.502Z,62.93
2023-03-14T04:21:25.993Z,61.93
2023-03-14T04:23:52.443Z,60.87
2023-03-14T04:26:19.092Z,61.45
2023-03-14T04:28:45.540Z,61.46
2023-03-14T04:31:15.428Z,61.22
2023-03-14T04:33:44.810Z,62.20
2023-03-14T04:36:11.902Z,62.59
2023-03-14T04:38:38.407Z,64.99
2023-03-14T04:41:05.324Z,63.87
2023-03-14T04:43:31.914Z,62.66
2023-03-14T04:45:59.282Z,63.60
2023-03-14T04:48:26.432Z,61.16
2023-03-14T04:50:53.097Z,62.26
2023-03-14T04:53:20.045Z,64.07
2023-03-14T04:55:54.452Z,65.55
2023-03-14T04:58:21.942Z,66.53
2023-03-14T05:00:48.713Z,64.49
2023-03-14T05:03:19.275Z,66.22
2023-03-14T05:05:46.293Z,64.69
2023-03-14T05:08:12.894Z,63.37
2023-03-14T05:10:39.584Z,63.07
2023-03-14T05:13:06.037Z,62.75
2023-03-14T05:15:32.581Z,63.37
2023-03-14T05:17:59.048Z,64.19
2023-03-14T05:20:25.476Z,61.91
2023-03-14T05:23:24.460Z,61.56
2023-03-14T05:25:50.869Z,63.43
2023-03-14T05:28:17.325Z,60.75
2023-03-14T05:31:04.662Z,61.89
2023-03-14T05:33:31.077Z,61.03
2023-03-14T05:36:04.040Z,63.50
2023-03-14T05:38:35.905Z,64.16
2023-03-14T05:41:05.786Z,63.38
2023-03-14T05:43:32.204Z,61.96
2023-03-14T05:46:01.900Z,62.91
2023-03-14T05:48:37.424Z,61.32
2023-03-14T05:56:00.933Z,63.60
2023-03-14T05:57:12.757Z,63.24
2023-03-14T05:59:39.147Z,62.17
2023-03-14T06:02:05.662Z,64.51
2023-03-14T06:04:32.184Z,66.72
2023-03-14T06:06:58.576Z,64.96
2023-03-14T06:09:25.102Z,63.51
2023-03-14T06:11:51.523Z,62.08
2023-03-14T06:14:18.567Z,64.41
2023-03-14T06:16:45.654Z,62.20
2023-03-14T06:19:12.791Z,62.36
2023-03-14T06:21:39.280Z,64.75
2023-03-14T06:24:05.887Z,63.52
2023-03-14T06:26:32.373Z,61.04
2023-03-14T06:29:02.177Z,61.44
2023-03-14T06:31:28.637Z,65.99
2023-03-14T06:33:55.346Z,64.50
2023-03-14T06:36:21.855Z,62.92
2023-03-14T06:38:48.383Z,64.18
2023-03-14T06:41:14.897Z,61.53
2023-03-14T06:43:41.333Z,63.37
2023-03-14T06:46:07.877Z,65.04
2023-03-14T06:48:34.604Z,63.17
2023-03-14T06:51:01.038Z,60.72
2023-03-14T06:53:27.512Z,59.58
2023-03-14T06:55:54.202Z,61.33
2023-03-14T06:58:21.255Z,59.70
2023-03-14T07:00:47.688Z,59.29
2023-03-14T07:03:14.749Z,59.29
2023-03-14T07:05:41.589Z,57.96
2023-03-14T07:08:09.061Z,59.01
2023-03-14T07:10:35.932Z,61.34
2023-03-14T07:13:02.384Z,57.61
2023-03-14T07:15:28.835Z,60.16
2023-03-14T07:17:55.355Z,58.70
2023-03-14T07:20:24.694Z,57.71
2023-03-14T07:22:51.372Z,58.21
2023-03-14T07:25:18.656Z,56.83
2023-03-14T07:27:46.559Z,58.84
2023-03-14T07:30:13.852Z,58.73
2023-03-14T07:32:40.387Z,57.83
2023-03-14T07:35:07.651Z,60.06
2023-03-14T07:37:34.053Z,55.64
2023-03-14T07:40:00.475Z,55.88
2023-03-14T07:42:27.194Z,59.78
2023-03-14T07:44:53.610Z,61.40
2023-03-14T07:47:20.109Z,59.97
2023-03-14T07:49:46.591Z,60.90
2023-03-14T07:52:12.968Z,59.43
2023-03-14T07:54:39.434Z,63.89
2023-03-14T07:57:05.843Z,65.06
2023-03-14T07:59:32.292Z,61.08
2023-03-14T08:01:58.782Z,58.23
2023-03-14T08:04:25.228Z,58.85
2023-03-14T08:06:51.651Z,57.80
2023-03-14T08:09:18.192Z,55.47
2023-03-14T08:11:44.606Z,56.09
2023-03-14T08:14:12.033Z,56.65
2023-03-14T08:16:38.496Z,55.85
2023-03-14T08:19:04.946Z,57.34
2023-03-14T08:21:31.727Z,59.22
2023-03-14T08:23:58.119Z,57.10
2023-03-14T08:26:24.525Z,57.94
2023-03-14T08:28:50.880Z,57.58
2023-03-14T08:31:18.358Z,57.85
2023-03-14T08:33:44.891Z,57.15
2023-03-14T08:36:11.679Z,55.29
2023-03-14T08:38:38.124Z,55.33
2023-03-14T08:41:05.807Z,57.59
2023-03-14T08:43:32.197Z,58.67
2023-03-14T08:45:59.969Z,58.09
2023-03-14T08:48:26.533Z,56.22
2023-03-14T08:50:52.973Z,55.47
2023-03-14T08:53:21.854Z,54.84
2023-03-14T08:55:48.302Z,54.13
2023-03-14T08:58:26.844Z,55.06
2023-03-14T09:01:06.834Z,55.66
2023-03-14T09:03:33.333Z,54.89
2023-03-14T09:06:06.886Z,57.78
2023-03-14T09:08:33.488Z,56.03
2023-03-14T09:11:00.562Z,56.51
2023-03-14T09:13:27.005Z,54.68
2023-03-14T09:15:54.669Z,57.04
2023-03-14T09:18:21.593Z,57.88
2023-03-14T09:20:48.197Z,57.66
2023-03-14T09:23:14.600Z,58.19
2023-03-14T09:25:41.010Z,58.46
2023-03-14T09:28:07.543Z,59.62
2023-03-14T09:30:34.131Z,59.66
2023-03-14T09:33:00.783Z,57.53
2023-03-14T09:35:36.332Z,57.47
2023-03-14T09:38:02.820Z,57.52
2023-03-14T09:40:35.455Z,57.57
2023-03-14T09:43:02.412Z,61.35
2023-03-14T09:45:30.360Z,59.21
2023-03-14T09:47:59.942Z,57.90
2023-03-14T09:50:34.560Z,58.40
2023-03-14T09:53:07.193Z,59.00
2023-03-14T09:55:36.312Z,59.46
2023-03-14T09:58:10.970Z,57.68
2023-03-14T10:00:37.520Z,60.08
2023-03-14T10:03:37.543Z,59.38
2023-03-14T10:10:20.784Z,56.48
2023-03-14T10:12:55.362Z,57.23
2023-03-14T10:15:32.358Z,55.68
2023-03-14T10:18:03.933Z,57.15
2023-03-14T10:20:34.053Z,58.50
2023-03-14T10:23:07.507Z,57.25
2023-03-14T10:25:38.493Z,55.83
2023-03-14T10:28:05.849Z,57.97
2023-03-14T10:30:45.000Z,55.22
2023-03-14T10:33:19.329Z,57.91
2023-03-14T10:35:47.704Z,58.73
2023-03-14T10:38:17.471Z,58.11
2023-03-14T10:40:50.333Z,56.88
2023-03-14T10:43:22.169Z,56.83
2023-03-14T10:46:06.856Z,55.46
2023-03-14T10:48:34.592Z,58.24
2023-03-14T10:51:09.555Z,59.57
2023-03-14T10:53:43.613Z,57.36
2023-03-14T10:56:21.740Z,57.64
2023-03-14T10:58:58.733Z,59.29
2023-03-14T11:01:53.210Z,59.78
2023-03-14T11:04:27.054Z,59.09
2023-03-14T11:07:01.266Z,54.98
2023-03-14T11:09:37.198Z,56.74
2023-03-14T11:12:42.373Z,59.60
2023-03-14T11:15:43.211Z,59.21
2023-03-14T11:18:48.748Z,59.35
2023-03-14T11:21:15.117Z,58.20
2023-03-14T11:24:27.917Z,57.71
2023-03-14T11:27:11.667Z,56.34
2023-03-14T11:29:55.244Z,57.07
2023-03-14T11:33:00.345Z,57.19
2023-03-14T11:35:32.655Z,57.85
2023-03-14T11:38:45.506Z,57.39
2023-03-14T11:41:40.789Z,59.38
2023-03-14T11:44:31.107Z,58.37
2023-03-14T11:47:11.080Z,58.84
2023-03-14T11:49:47.566Z,56.47
2023-03-14T11:52:38.143Z,59.71
2023-03-14T11:55:31.375Z,57.44
2023-03-14T11:58:04.566Z,57.90
2023-03-14T12:00:31.560Z,58.73
2023-03-14T12:03:10.394Z,62.09
2023-03-14T12:05:40.785Z,61.79
2023-03-14T12:08:10.410Z,68.01
2023-03-14T12:10:52.962Z,69.94
2023-03-14T12:13:20.336Z,72.92
2023-03-14T12:16:02.273Z,74.45
2023-03-14T12:18:39.641Z,73.72
2023-03-14T12:21:13.300Z,77.59
2023-03-14T12:23:56.615Z,77.22
2023-03-14T12:26:26.612Z,73.61
2023-03-14T12:29:16.484Z,72.93
2023-03-14T12:31:44.495Z,72.00
2023-03-14T12:34:11.023Z,73.32
2023-03-14T12:36:52.565Z,71.22
2023-03-14T12:39:56.542Z,72.91
2023-03-14T12:42:45.000Z,72.03
2023-03-14T12:45:25.670Z,74.14
2023-03-14T12:48:10.530Z,74.61
2023-03-14T12:50:54.519Z,72.61
2023-03-14T12:53:33.067Z,73.22
2023-03-14T12:56:06.136Z,73.98
2023-03-14T12:59:00.190Z,73.67
2023-03-14T13:01:26.751Z,75.08
2023-03-14T13:03:57.318Z,74.47
2023-03-14T13:07:08.874Z,72.34
2023-03-14T13:09:37.278Z,72.30
2023-03-14T13:12:12.854Z,72.09
2023-03-14T13:14:46.498Z,70.47
2023-03-14T13:20:10.873Z,72.38
2023-03-14T13:22:39.277Z,75.58
2023-03-14T13:25:11.932Z,72.08
2023-03-14T13:27:38.897Z,72.78
2023-03-14T13:30:20.874Z,71.39
2023-03-14T13:32:49.514Z,72.94
2023-03-14T13:35:25.469Z,73.34
2023-03-14T13:38:11.578Z,71.69
2023-03-14T13:40:39.235Z,72.13
2023-03-14T13:43:12.299Z,72.03
2023-03-14T13:45:49.695Z,71.90
2023-03-14T13:48:17.328Z,71.78
2023-03-14T13:50:51.905Z,72.17
2023-03-14T13:53:18.939Z,71.41
2023-03-14T13:55:45.382Z,71.12
2023-03-14T13:58:29.898Z,71.41
2023-03-14T14:01:12.363Z,70.72
2023-03-14T14:03:41.597Z,68.75
2023-03-14T14:06:22.811Z,69.09
2023-03-14T14:08:49.533Z,69.06
2023-03-14T14:11:53.733Z,69.24
2023-03-14T14:14:28.426Z,66.78
2023-03-14T14:16:55.760Z,67.87
2023-03-14T14:19:24.385Z,68.35
2023-03-14T14:21:51.784Z,65.50
2023-03-14T14:24:18.355Z,66.46
2023-03-14T14:26:59.602Z,66.51
2023-03-14T14:29:29.271Z,71.10
2023-03-14T14:32:08.837Z,70.14
2023-03-14T14:34:58.124Z,72.02
2023-03-14T14:37:27.812Z,72.21
2023-03-14T14:39:58.327Z,70.14
2023-03-14T14:42:32.629Z,70.54
2023-03-14T14:45:00.780Z,68.33
2023-03-14T14:47:29.418Z,67.54
2023-03-14T14:50:00.919Z,69.53
2023-03-14T14:52:44.840Z,71.83
2023-03-14T14:55:19.090Z,71.51
2023-03-14T14:57:54.279Z,68.46
2023-03-14T15:00:23.414Z,73.07
2023-03-14T15:02:54.896Z,74.19
2023-03-14T15:05:24.566Z,71.76
2023-03-14T15:07:51.445Z,71.73
2023-03-14T15:10:20.379Z,71.01
2023-03-14T15:12:48.246Z,71.01
2023-03-14T15:15:16.094Z,68.55
2023-03-14T15:17:43.245Z,68.48
2023-03-14T15:20:15.919Z,69.61
2023-03-14T15:22:42.575Z,68.25
2023-03-14T15:25:18.717Z,70.26
2023-03-14T15:27:53.649Z,66.12
2023-03-14T15:30:20.474Z,66.33
2023-03-14T15:32:46.987Z,66.93
2023-03-14T15:35:17.645Z,66.00
2023-03-14T15:37:44.925Z,65.91
2023-03-14T15:40:14.844Z,66.08
2023-03-14T15:42:42.240Z,66.56
2023-03-14T15:45:09.445Z,64.54
2023-03-14T15:47:35.895Z,64.34
2023-03-14T15:50:02.553Z,63.33
2023-03-14T15:52:29.100Z,62.48
2023-03-14T15:54:55.580Z,60.54
2023-03-14T15:57:21.992Z,58.08
2023-03-14T15:59:48.539Z,56.86
2023-03-14T16:02:14.972Z,57.43
2023-03-14T16:04:41.480Z,55.55
2023-03-14T16:07:08.070Z,54.85
2023-03-14T16:09:34.499Z,53.84
2023-03-14T16:12:00.897Z,54.35
2023-03-14T16:14:27.318Z,52.88
2023-03-14T16:16:54.236Z,54.91
2023-03-14T16:19:20.703Z,53.57
2023-03-14T16:21:47.183Z,51.98
2023-03-14T16:24:13.568Z,53.27
2023-03-14T16:26:39.973Z,53.29
2023-03-14T16:29:06.359Z,53.10
2023-03-14T16:31:33.558Z,52.18
2023-03-14T16:34:03.915Z,50.75
2023-03-14T16:36:30.374Z,52.97
2023-03-14T16:38:56.819Z,53.35
2023-03-14T16:41:23.389Z,53.88
2023-03-14T16:43:52.186Z,52.38
2023-03-14T16:46:22.309Z,52.36
2023-03-14T16:48:49.074Z,54.14
2023-03-14T16:51:16.498Z,54.78
2023-03-14T16:53:43.699Z,52.57
2023-03-14T16:56:10.919Z,52.91
2023-03-14T16:58:38.272Z,53.05
2023-03-14T17:01:10.262Z,52.67
2023-03-14T17:03:42.246Z,52.39
2023-03-14T17:06:11.911Z,51.58
2023-03-14T17:08:38.330Z,52.75
2023-03-14T17:11:04.919Z,52.16
2023-03-14T17:13:31.378Z,50.31
2023-03-14T17:15:59.722Z,50.24
2023-03-14T17:18:27.800Z,52.07
2023-03-14T17:20:55.993Z,50.07
2023-03-14T17:23:24.461Z,49.04
2023-03-14T17:25:51.619Z,49.17
2023-03-14T17:28:19.301Z,49.45
2023-03-14T17:30:46.194Z,50.41
2023-03-14T17:33:13.001Z,50.77
2023-03-14T17:35:40.024Z,49.96
2023-03-14T17:38:06.543Z,49.53
2023-03-14T17:40:33.241Z,49.62
2023-03-14T17:42:59.803Z,48.89
2023-03-14T17:45:26.435Z,48.42
2023-03-14T17:47:52.855Z,49.03
2023-03-14T17:50:19.673Z,50.14
2023-03-14T17:52:46.075Z,49.08
2023-03-14T17:55:12.742Z,50.83
2023-03-14T17:57:40.219Z,50.85
2023-03-14T18:00:11.165Z,51.46
2023-03-14T18:02:37.774Z,49.93
2023-03-14T18:05:04.586Z,51.22
2023-03-14T18:07:35.286Z,51.25
2023-03-14T18:10:02.387Z,51.44
2023-03-14T18:12:34.721Z,50.43
2023-03-14T18:15:01.268Z,51.28
2023-03-14T18:17:27.744Z,50.20
2023-03-14T18:19:55.902Z,49.88
2023-03-14T18:22:24.624Z,49.91
2023-03-14T18:24:51.164Z,49.92
2023-03-14T18:27:17.986Z,50.55
2023-03-14T18:29:44.743Z,49.16
2023-03-14T18:32:11.204Z,51.01
2023-03-14T18:34:37.663Z,51.07
2023-03-14T18:37:04.221Z,50.34
2023-03-14T18:39:30.793Z,51.26
2023-03-14T18:41:57.203Z,49.66
2023-03-14T18:44:23.636Z,49.68
2023-03-14T18:46:50.057Z,50.67
2023-03-14T18:49:16.473Z,50.38
2023-03-14T18:51:43.425Z,51.86
2023-03-14T18:54:11.472Z,51.38
2023-03-14T18:56:40.001Z,51.13
2023-03-14T18:59:07.081Z,50.94
2023-03-14T19:01:34.201Z,51.36
2023-03-14T19:04:01.825Z,51.08
2023-03-14T19:06:31.789Z,51.21
2023-03-14T19:08:58.960Z,51.73
2023-03-14T19:11:26.874Z,51.32
2023-03-14T19:13:54.922Z,51.51
2023-03-14T19:16:24.714Z,52.41
2023-03-14T19:18:52.277Z,52.43
2023-03-14T19:21:33.603Z,52.90
2023-03-14T19:24:00.981Z,51.86
2023-03-14T19:26:30.108Z,51.88
2023-03-14T19:28:56.665Z,51.29
2023-03-14T19:31:23.299Z,52.76
2023-03-14T19:33:49.738Z,51.44
2023-03-14T19:36:25.361Z,52.70
2023-03-14T19:38:52.616Z,51.75
2023-03-14T19:41:20.482Z,50.64
2023-03-14T19:43:47.019Z,51.67
2023-03-14T19:46:13.718Z,49.92
2023-03-14T19:48:40.374Z,51.34
2023-03-14T19:51:07.098Z,51.87
2023-03-14T19:53:35.249Z,51.63
2023-03-14T19:56:02.218Z,50.83
2023-03-14T19:58:28.694Z,51.00
2023-03-14T20:00:56.557Z,50.75
2023-03-14T20:03:24.181Z,51.54
2023-03-14T20:05:53.065Z,50.97
2023-03-14T20:08:23.360Z,51.15
2023-03-14T20:10:50.459Z,51.73
2023-03-14T20:13:21.753Z,51.66
2023-03-14T20:15:49.102Z,51.27
2023-03-14T20:18:15.595Z,50.86
2023-03-14T20:20:42.038Z,52.57
2023-03-14T20:23:09.317Z,52.25
2023-03-14T20:25:37.615Z,51.82
2023-03-14T20:28:05.051Z,51.34
2023-03-14T20:30:31.575Z,50.77
2023-03-14T20:32:58.303Z,51.37
2023-03-14T20:35:25.156Z,52.34
2023-03-14T20:37:53.609Z,51.40
2023-03-14T20:40:20.931Z,51.18
2023-03-14T20:42:47.366Z,52.81
2023-03-14T20:45:13.806Z,51.24
2023-03-14T20:47:40.344Z,51.73
2023-03-14T20:50:07.682Z,53.55
2023-03-14T20:52:34.155Z,52.64
2023-03-14T20:55:00.780Z,52.62
2023-03-14T20:57:27.701Z,54.13
2023-03-14T20:59:54.387Z,53.86
2023-03-14T21:02:20.862Z,53.11
2023-03-14T21:04:47.401Z,55.53
2023-03-14T21:07:14.207Z,53.51
2023-03-14T21:09:40.804Z,53.96
2023-03-14T21:12:07.484Z,54.05
2023-03-14T21:14:33.980Z,56.67
2023-03-14T21:17:00.561Z,55.43
2023-03-14T21:19:33.179Z,55.55
2023-03-14T21:22:04.994Z,54.32
2023-03-14T21:24:32.023Z,55.08
2023-03-14T21:26:58.516Z,55.60
2023-03-14T21:29:25.005Z,54.71
2023-03-14T21:31:51.643Z,55.72
2023-03-14T21:34:20.976Z,54.40
2023-03-14T21:36:48.870Z,54.55
2023-03-14T21:39:15.841Z,55.09
2023-03-14T21:41:42.378Z,57.48
2023-03-14T21:44:08.785Z,56.62
2023-03-14T21:46:37.042Z,59.09
2023-03-14T21:49:04.004Z,58.67
2023-03-14T21:51:31.233Z,57.96
2023-03-14T21:53:57.677Z,57.89
2023-03-14T21:56:26.820Z,58.78
2023-03-14T21:58:55.780Z,57.82
2023-03-14T22:01:22.974Z,57.08
2023-03-14T22:03:49.742Z,58.25
2023-03-14T22:06:16.487Z,57.49
2023-03-14T22:08:42.913Z,57.01
2023-03-14T22:11:09.310Z,56.99
2023-03-14T22:13:35.965Z,56.51
2023-03-14T22:16:02.413Z,56.16
2023-03-14T22:18:30.226Z,55.56
2023-03-14T22:20:56.922Z,56.01
2023-03-14T22:23:23.384Z,57.39
2023-03-14T22:25:49.803Z,56.85
2023-03-14T22:28:18.545Z,57.45
2023-03-14T22:30:49.710Z,57.29
2023-03-14T22:33:17.681Z,56.99
2023-03-14T22:35:52.836Z,58.28
2023-03-14T22:38:19.515Z,56.73
2023-03-14T22:40:46.396Z,57.28
2023-03-14T22:43:12.810Z,57.06
2023-03-14T22:45:39.238Z,56.15
2023-03-14T22:48:05.811Z,57.88
2023-03-14T22:50:32.205Z,58.10
2023-03-14T22:52:58.875Z,58.90
2023-03-14T22:55:25.638Z,58.39
2023-03-14T22:57:52.997Z,58.13
2023-03-14T23:00:19.778Z,56.37
2023-03-14T23:02:46.345Z,55.96
2023-03-14T23:05:12.779Z,56.69
2023-03-14T23:07:39.209Z,55.75
2023-03-14T23:10:06.557Z,55.80
2023-03-14T23:12:33.764Z,56.38
2023-03-14T23:15:00.231Z,56.58
2023-03-14T23:17:26.796Z,57.39
2023-03-14T23:19:53.988Z,56.28
2023-03-14T23:22:20.958Z,56.92
2023-03-14T23:24:48.604Z,55.98
2023-03-14T23:27:17.524Z,56.16
2023-03-14T23:29:46.717Z,57.28
2023-03-14T23:32:15.424Z,58.69
2023-03-14T23:34:43.216Z,58.42
2023-03-14T23:37:13.801Z,57.78
2023-03-14T23:39:41.501Z,57.67
2023-03-14T23:42:08.198Z,57.61
2023-03-14T23:44:34.804Z,56.13
2023-03-14T23:47:01.302Z,56.93
2023-03-14T23:49:27.827Z,55.56
2023-03-14T23:51:54.580Z,56.64
2023-03-14T23:54:21.125Z,56.38
2023-03-14T23:56:47.613Z,56.28
2023-03-14T23:59:14.067Z,57.00
